sensor_id;sensor_type;location;lat;lon;timestamp;P1;durP1;ratioP1;P2;durP2;ratioP2
9392;SDS011;4736;52.508;13.422;2022-08-21T00:01:27;8.33;;;7.53;;
9392;SDS011;4736;52.508;13.422;2022-08-21T00:04:32;8.33;;;7.57;;
9392;SDS011;4736;52.508;13.422;2022-08-21T00:07:36;8.80;;;8.00;;
9392;SDS011;4736;52.508;13.422;2022-08-21T00:10:39;8.23;;;7.53;;
9392;SDS011;4736;52.508;13.422;2022-08-21T00:13:49;8.10;;;7.53;;
9392;SDS011;4736;52.508;13.422;2022-08-21T00:16:52;8.13;;;7.37;;
9392;SDS011;4736;52.508;13.422;2022-08-21T00:20:02;7.83;;;7.20;;
9392;SDS011;4736;52.508;13.422;2022-08-21T00:23:06;8.17;;;7.67;;
9392;SDS011;4736;52.508;13.422;2022-08-21T00:26:09;8.63;;;7.83;;
9392;SDS011;4736;52.508;13.422;2022-08-21T00:29:13;8.60;;;7.90;;
9392;SDS011;4736;52.508;13.422;2022-08-21T00:32:19;7.93;;;7.20;;
9392;SDS011;4736;52.508;13.422;2022-08-21T00:35:25;8.57;;;8.00;;
9392;SDS011;4736;52.508;13.422;2022-08-21T00:38:30;7.93;;;7.43;;
9392;SDS011;4736;52.508;13.422;2022-08-21T00:41:33;8.37;;;7.57;;
9392;SDS011;4736;52.508;13.422;2022-08-21T00:44:42;8.30;;;7.43;;
9392;SDS011;4736;52.508;13.422;2022-08-21T00:47:45;7.53;;;6.93;;
9392;SDS011;4736;52.508;13.422;2022-08-21T00:50:50;7.50;;;6.90;;
9392;SDS011;4736;52.508;13.422;2022-08-21T00:53:58;7.53;;;6.93;;
9392;SDS011;4736;52.508;13.422;2022-08-21T00:57:05;7.73;;;7.23;;
9392;SDS011;4736;52.508;13.422;2022-08-21T01:00:13;8.13;;;7.37;;
9392;SDS011;4736;52.508;13.422;2022-08-21T01:03:21;10.67;;;8.13;;
9392;SDS011;4736;52.508;13.422;2022-08-21T01:06:27;8.73;;;7.93;;
9392;SDS011;4736;52.508;13.422;2022-08-21T01:09:30;8.97;;;8.20;;
9392;SDS011;4736;52.508;13.422;2022-08-21T01:12:33;8.93;;;8.10;;
9392;SDS011;4736;52.508;13.422;2022-08-21T01:15:37;8.30;;;7.80;;
9392;SDS011;4736;52.508;13.422;2022-08-21T01:18:44;8.27;;;7.77;;
9392;SDS011;4736;52.508;13.422;2022-08-21T01:21:51;8.47;;;7.77;;
9392;SDS011;4736;52.508;13.422;2022-08-21T01:24:55;9.27;;;8.47;;
9392;SDS011;4736;52.508;13.422;2022-08-21T01:28:01;8.53;;;7.93;;
9392;SDS011;4736;52.508;13.422;2022-08-21T01:31:09;9.10;;;8.30;;
9392;SDS011;4736;52.508;13.422;2022-08-21T01:34:14;9.80;;;8.83;;
9392;SDS011;4736;52.508;13.422;2022-08-21T01:37:20;8.00;;;7.27;;
9392;SDS011;4736;52.508;13.422;2022-08-21T01:40:23;7.43;;;6.93;;
9392;SDS011;4736;52.508;13.422;2022-08-21T01:43:26;8.93;;;8.33;;
9392;SDS011;4736;52.508;13.422;2022-08-21T01:46:39;7.70;;;7.20;;
9392;SDS011;4736;52.508;13.422;2022-08-21T01:49:42;7.33;;;6.67;;
9392;SDS011;4736;52.508;13.422;2022-08-21T01:52:49;7.90;;;7.47;;
9392;SDS011;4736;52.508;13.422;2022-08-21T01:55:54;7.23;;;6.53;;
9392;SDS011;4736;52.508;13.422;2022-08-21T01:58:57;9.67;;;6.90;;
9392;SDS011;4736;52.508;13.422;2022-08-21T02:02:06;7.67;;;6.70;;
9392;SDS011;4736;52.508;13.422;2022-08-21T02:05:09;7.07;;;6.47;;
9392;SDS011;4736;52.508;13.422;2022-08-21T02:08:15;7.37;;;6.73;;
9392;SDS011;4736;52.508;13.422;2022-08-21T02:11:18;6.63;;;6.33;;
9392;SDS011;4736;52.508;13.422;2022-08-21T02:14:22;6.50;;;6.10;;
9392;SDS011;4736;52.508;13.422;2022-08-21T02:17:37;6.87;;;6.27;;
9392;SDS011;4736;52.508;13.422;2022-08-21T02:20:42;6.70;;;6.10;;
9392;SDS011;4736;52.508;13.422;2022-08-21T02:27:16;7.00;;;6.30;;
9392;SDS011;4736;52.508;13.422;2022-08-21T02:30:28;6.27;;;5.93;;
9392;SDS011;4736;52.508;13.422;2022-08-21T02:33:33;6.50;;;6.03;;
9392;SDS011;4736;52.508;13.422;2022-08-21T02:36:36;6.03;;;5.67;;
9392;SDS011;4736;52.508;13.422;2022-08-21T02:39:40;6.10;;;5.70;;
9392;SDS011;4736;52.508;13.422;2022-08-21T02:42:51;5.53;;;5.13;;
9392;SDS011;4736;52.508;13.422;2022-08-21T02:45:54;6.10;;;5.60;;
9392;SDS011;4736;52.508;13.422;2022-08-21T02:49:06;5.63;;;5.43;;
9392;SDS011;4736;52.508;13.422;2022-08-21T02:52:09;6.20;;;5.77;;
9392;SDS011;4736;52.508;13.422;2022-08-21T02:55:14;7.20;;;5.33;;
9392;SDS011;4736;52.508;13.422;2022-08-21T02:58:18;5.73;;;5.30;;
9392;SDS011;4736;52.508;13.422;2022-08-21T03:01:24;5.70;;;5.30;;
9392;SDS011;4736;52.508;13.422;2022-08-21T03:04:27;6.50;;;5.90;;
9392;SDS011;4736;52.508;13.422;2022-08-21T03:07:30;6.10;;;5.60;;
9392;SDS011;4736;52.508;13.422;2022-08-21T03:10:35;5.30;;;5.00;;
9392;SDS011;4736;52.508;13.422;2022-08-21T03:13:38;5.93;;;5.27;;
9392;SDS011;4736;52.508;13.422;2022-08-21T03:16:41;7.73;;;5.87;;
9392;SDS011;4736;52.508;13.422;2022-08-21T03:19:45;5.47;;;5.00;;
9392;SDS011;4736;52.508;13.422;2022-08-21T03:22:47;6.50;;;5.10;;
9392;SDS011;4736;52.508;13.422;2022-08-21T03:25:54;7.00;;;5.60;;
9392;SDS011;4736;52.508;13.422;2022-08-21T03:28:57;6.33;;;5.70;;
9392;SDS011;4736;52.508;13.422;2022-08-21T03:32:00;5.40;;;5.00;;
9392;SDS011;4736;52.508;13.422;2022-08-21T03:35:06;5.20;;;4.90;;
9392;SDS011;4736;52.508;13.422;2022-08-21T03:38:10;5.30;;;4.80;;
9392;SDS011;4736;52.508;13.422;2022-08-21T03:41:16;5.93;;;5.37;;
9392;SDS011;4736;52.508;13.422;2022-08-21T03:44:19;5.00;;;4.70;;
9392;SDS011;4736;52.508;13.422;2022-08-21T03:47:22;4.93;;;4.63;;
9392;SDS011;4736;52.508;13.422;2022-08-21T03:50:27;4.90;;;4.57;;
9392;SDS011;4736;52.508;13.422;2022-08-21T03:53:32;5.43;;;4.93;;
9392;SDS011;4736;52.508;13.422;2022-08-21T03:56:36;4.83;;;4.27;;
9392;SDS011;4736;52.508;13.422;2022-08-21T03:59:40;5.43;;;5.00;;
9392;SDS011;4736;52.508;13.422;2022-08-21T04:02:44;5.47;;;4.40;;
9392;SDS011;4736;52.508;13.422;2022-08-21T04:05:48;5.73;;;4.50;;
9392;SDS011;4736;52.508;13.422;2022-08-21T04:08:51;8.77;;;5.43;;
9392;SDS011;4736;52.508;13.422;2022-08-21T04:11:57;9.27;;;5.00;;
9392;SDS011;4736;52.508;13.422;2022-08-21T04:15:08;6.07;;;4.77;;
9392;SDS011;4736;52.508;13.422;2022-08-21T04:18:11;5.20;;;4.77;;
9392;SDS011;4736;52.508;13.422;2022-08-21T04:21:14;9.67;;;4.70;;
9392;SDS011;4736;52.508;13.422;2022-08-21T04:24:21;5.60;;;5.03;;
9392;SDS011;4736;52.508;13.422;2022-08-21T04:27:25;11.07;;;5.03;;
9392;SDS011;4736;52.508;13.422;2022-08-21T04:30:30;5.83;;;4.67;;
9392;SDS011;4736;52.508;13.422;2022-08-21T04:33:34;6.90;;;4.27;;
9392;SDS011;4736;52.508;13.422;2022-08-21T04:36:37;7.17;;;4.63;;
9392;SDS011;4736;52.508;13.422;2022-08-21T04:39:40;5.70;;;5.10;;
9392;SDS011;4736;52.508;13.422;2022-08-21T04:42:46;5.20;;;4.70;;
9392;SDS011;4736;52.508;13.422;2022-08-21T04:46:08;4.70;;;4.27;;
9392;SDS011;4736;52.508;13.422;2022-08-21T04:49:15;7.00;;;4.43;;
9392;SDS011;4736;52.508;13.422;2022-08-21T04:52:20;6.40;;;4.57;;
9392;SDS011;4736;52.508;13.422;2022-08-21T04:55:28;8.70;;;4.57;;
9392;SDS011;4736;52.508;13.422;2022-08-21T04:58:34;4.77;;;4.17;;
9392;SDS011;4736;52.508;13.422;2022-08-21T05:01:41;7.07;;;5.03;;
9392;SDS011;4736;52.508;13.422;2022-08-21T05:04:46;4.63;;;4.10;;
9392;SDS011;4736;52.508;13.422;2022-08-21T05:07:52;6.87;;;4.60;;
9392;SDS011;4736;52.508;13.422;2022-08-21T05:10:56;5.60;;;4.40;;
9392;SDS011;4736;52.508;13.422;2022-08-21T05:14:02;8.07;;;4.67;;
9392;SDS011;4736;52.508;13.422;2022-08-21T05:17:05;8.07;;;4.93;;
9392;SDS011;4736;52.508;13.422;2022-08-21T05:20:08;4.40;;;4.07;;
9392;SDS011;4736;52.508;13.422;2022-08-21T05:23:13;4.63;;;4.33;;
9392;SDS011;4736;52.508;13.422;2022-08-21T05:26:16;4.40;;;4.10;;
9392;SDS011;4736;52.508;13.422;2022-08-21T05:29:25;5.37;;;4.00;;
9392;SDS011;4736;52.508;13.422;2022-08-21T05:32:29;5.47;;;4.30;;
9392;SDS011;4736;52.508;13.422;2022-08-21T05:35:32;4.60;;;4.20;;
9392;SDS011;4736;52.508;13.422;2022-08-21T05:38:36;8.80;;;4.20;;
9392;SDS011;4736;52.508;13.422;2022-08-21T05:41:39;5.57;;;4.37;;
9392;SDS011;4736;52.508;13.422;2022-08-21T05:44:43;6.47;;;4.00;;
9392;SDS011;4736;52.508;13.422;2022-08-21T05:47:48;6.57;;;4.10;;
9392;SDS011;4736;52.508;13.422;2022-08-21T05:50:52;8.50;;;4.13;;
9392;SDS011;4736;52.508;13.422;2022-08-21T05:53:55;5.53;;;3.87;;
9392;SDS011;4736;52.508;13.422;2022-08-21T05:56:58;7.43;;;3.90;;
9392;SDS011;4736;52.508;13.422;2022-08-21T06:00:10;3.97;;;3.53;;
9392;SDS011;4736;52.508;13.422;2022-08-21T06:03:15;4.73;;;3.70;;
9392;SDS011;4736;52.508;13.422;2022-08-21T06:06:20;4.70;;;4.13;;
9392;SDS011;4736;52.508;13.422;2022-08-21T06:09:24;4.30;;;3.90;;
9392;SDS011;4736;52.508;13.422;2022-08-21T06:12:26;5.83;;;3.87;;
9392;SDS011;4736;52.508;13.422;2022-08-21T06:15:31;5.00;;;3.83;;
9392;SDS011;4736;52.508;13.422;2022-08-21T06:18:34;5.97;;;3.70;;
9392;SDS011;4736;52.508;13.422;2022-08-21T06:21:37;7.00;;;3.87;;
9392;SDS011;4736;52.508;13.422;2022-08-21T06:24:40;6.40;;;3.93;;
9392;SDS011;4736;52.508;13.422;2022-08-21T06:27:43;6.23;;;3.90;;
9392;SDS011;4736;52.508;13.422;2022-08-21T06:30:48;4.70;;;3.73;;
9392;SDS011;4736;52.508;13.422;2022-08-21T06:33:54;8.80;;;3.90;;
9392;SDS011;4736;52.508;13.422;2022-08-21T06:36:58;7.17;;;4.40;;
9392;SDS011;4736;52.508;13.422;2022-08-21T06:40:02;4.77;;;3.53;;
9392;SDS011;4736;52.508;13.422;2022-08-21T06:43:13;4.27;;;3.87;;
9392;SDS011;4736;52.508;13.422;2022-08-21T06:46:21;8.93;;;4.67;;
9392;SDS011;4736;52.508;13.422;2022-08-21T06:49:24;8.50;;;4.30;;
9392;SDS011;4736;52.508;13.422;2022-08-21T06:52:27;5.10;;;3.73;;
9392;SDS011;4736;52.508;13.422;2022-08-21T06:55:30;5.80;;;4.07;;
9392;SDS011;4736;52.508;13.422;2022-08-21T06:58:38;4.73;;;4.33;;
9392;SDS011;4736;52.508;13.422;2022-08-21T07:01:42;6.63;;;4.37;;
9392;SDS011;4736;52.508;13.422;2022-08-21T07:04:45;4.27;;;3.97;;
9392;SDS011;4736;52.508;13.422;2022-08-21T07:07:48;4.77;;;4.10;;
9392;SDS011;4736;52.508;13.422;2022-08-21T07:10:51;6.50;;;4.00;;
9392;SDS011;4736;52.508;13.422;2022-08-21T07:13:55;4.60;;;3.80;;
9392;SDS011;4736;52.508;13.422;2022-08-21T07:17:01;6.37;;;3.93;;
9392;SDS011;4736;52.508;13.422;2022-08-21T07:20:04;6.00;;;3.40;;
9392;SDS011;4736;52.508;13.422;2022-08-21T07:23:08;8.07;;;3.93;;
9392;SDS011;4736;52.508;13.422;2022-08-21T07:26:15;6.47;;;3.50;;
9392;SDS011;4736;52.508;13.422;2022-08-21T07:29:21;5.20;;;3.83;;
9392;SDS011;4736;52.508;13.422;2022-08-21T07:32:26;6.03;;;3.67;;
9392;SDS011;4736;52.508;13.422;2022-08-21T07:35:37;4.00;;;3.50;;
9392;SDS011;4736;52.508;13.422;2022-08-21T07:38:41;3.70;;;3.27;;
9392;SDS011;4736;52.508;13.422;2022-08-21T07:41:44;3.50;;;3.10;;
9392;SDS011;4736;52.508;13.422;2022-08-21T07:44:46;3.83;;;2.83;;
9392;SDS011;4736;52.508;13.422;2022-08-21T07:47:54;2.90;;;2.70;;
9392;SDS011;4736;52.508;13.422;2022-08-21T07:50:59;3.13;;;2.90;;
9392;SDS011;4736;52.508;13.422;2022-08-21T07:54:08;3.43;;;2.97;;
9392;SDS011;4736;52.508;13.422;2022-08-21T07:57:17;3.13;;;2.70;;
9392;SDS011;4736;52.508;13.422;2022-08-21T08:00:23;3.40;;;2.83;;
9392;SDS011;4736;52.508;13.422;2022-08-21T08:03:28;3.50;;;3.20;;
9392;SDS011;4736;52.508;13.422;2022-08-21T08:06:31;2.93;;;2.70;;
9392;SDS011;4736;52.508;13.422;2022-08-21T08:09:34;3.00;;;2.77;;
9392;SDS011;4736;52.508;13.422;2022-08-21T08:12:38;2.83;;;2.60;;
9392;SDS011;4736;52.508;13.422;2022-08-21T08:15:42;5.53;;;2.67;;
9392;SDS011;4736;52.508;13.422;2022-08-21T08:18:46;6.30;;;2.93;;
9392;SDS011;4736;52.508;13.422;2022-08-21T08:21:50;3.53;;;3.00;;
9392;SDS011;4736;52.508;13.422;2022-08-21T08:24:53;2.80;;;2.60;;
9392;SDS011;4736;52.508;13.422;2022-08-21T08:27:56;4.73;;;2.80;;
9392;SDS011;4736;52.508;13.422;2022-08-21T08:31:00;6.10;;;2.90;;
9392;SDS011;4736;52.508;13.422;2022-08-21T08:34:05;5.93;;;3.33;;
9392;SDS011;4736;52.508;13.422;2022-08-21T08:37:08;3.57;;;3.30;;
9392;SDS011;4736;52.508;13.422;2022-08-21T08:40:12;3.77;;;3.10;;
9392;SDS011;4736;52.508;13.422;2022-08-21T08:43:20;4.20;;;3.47;;
9392;SDS011;4736;52.508;13.422;2022-08-21T08:46:25;3.23;;;3.10;;
9392;SDS011;4736;52.508;13.422;2022-08-21T08:49:38;8.50;;;3.40;;
9392;SDS011;4736;52.508;13.422;2022-08-21T08:52:45;2.90;;;2.70;;
9392;SDS011;4736;52.508;13.422;2022-08-21T08:55:52;3.50;;;2.73;;
9392;SDS011;4736;52.508;13.422;2022-08-21T08:58:59;2.67;;;2.47;;
9392;SDS011;4736;52.508;13.422;2022-08-21T09:02:08;3.03;;;2.77;;
9392;SDS011;4736;52.508;13.422;2022-08-21T09:05:18;3.43;;;3.23;;
9392;SDS011;4736;52.508;13.422;2022-08-21T09:11:53;5.47;;;2.90;;
9392;SDS011;4736;52.508;13.422;2022-08-21T09:15:12;3.73;;;3.43;;
9392;SDS011;4736;52.508;13.422;2022-08-21T09:18:27;3.83;;;3.40;;
9392;SDS011;4736;52.508;13.422;2022-08-21T09:21:41;5.57;;;3.47;;
9392;SDS011;4736;52.508;13.422;2022-08-21T09:24:55;4.20;;;3.10;;
9392;SDS011;4736;52.508;13.422;2022-08-21T09:28:09;3.00;;;2.80;;
9392;SDS011;4736;52.508;13.422;2022-08-21T09:31:20;3.03;;;2.73;;
9392;SDS011;4736;52.508;13.422;2022-08-21T09:34:27;4.43;;;2.93;;
9392;SDS011;4736;52.508;13.422;2022-08-21T09:37:44;2.90;;;2.70;;
9392;SDS011;4736;52.508;13.422;2022-08-21T09:40:54;4.03;;;3.17;;
9392;SDS011;4736;52.508;13.422;2022-08-21T09:44:00;3.40;;;3.10;;
9392;SDS011;4736;52.508;13.422;2022-08-21T09:47:03;3.40;;;2.97;;
9392;SDS011;4736;52.508;13.422;2022-08-21T09:50:07;4.37;;;3.10;;
9392;SDS011;4736;52.508;13.422;2022-08-21T09:53:17;5.77;;;2.70;;
9392;SDS011;4736;52.508;13.422;2022-08-21T09:56:26;2.90;;;2.80;;
9392;SDS011;4736;52.508;13.422;2022-08-21T09:59:49;6.90;;;2.90;;
9392;SDS011;4736;52.508;13.422;2022-08-21T10:02:52;3.13;;;2.83;;
9392;SDS011;4736;52.508;13.422;2022-08-21T10:05:56;2.70;;;2.50;;
9392;SDS011;4736;52.508;13.422;2022-08-21T10:09:06;2.87;;;2.63;;
9392;SDS011;4736;52.508;13.422;2022-08-21T10:12:20;4.37;;;2.93;;
9392;SDS011;4736;52.508;13.422;2022-08-21T10:15:31;5.20;;;3.00;;
9392;SDS011;4736;52.508;13.422;2022-08-21T10:18:44;3.33;;;3.00;;
9392;SDS011;4736;52.508;13.422;2022-08-21T10:21:59;5.83;;;3.27;;
9392;SDS011;4736;52.508;13.422;2022-08-21T10:25:14;3.63;;;3.17;;
9392;SDS011;4736;52.508;13.422;2022-08-21T10:28:24;3.43;;;2.80;;
9392;SDS011;4736;52.508;13.422;2022-08-21T10:31:36;4.47;;;3.53;;
9392;SDS011;4736;52.508;13.422;2022-08-21T10:34:52;6.37;;;3.00;;
9392;SDS011;4736;52.508;13.422;2022-08-21T10:45:42;3.20;;;2.90;;
9392;SDS011;4736;52.508;13.422;2022-08-21T10:48:54;3.37;;;3.10;;
9392;SDS011;4736;52.508;13.422;2022-08-21T10:52:05;3.87;;;2.90;;
9392;SDS011;4736;52.508;13.422;2022-08-21T10:55:20;3.80;;;3.50;;
9392;SDS011;4736;52.508;13.422;2022-08-21T10:58:26;3.13;;;2.87;;
9392;SDS011;4736;52.508;13.422;2022-08-21T11:01:34;2.80;;;2.60;;
9392;SDS011;4736;52.508;13.422;2022-08-21T11:04:48;4.10;;;2.97;;
9392;SDS011;4736;52.508;13.422;2022-08-21T11:07:59;3.80;;;2.90;;
9392;SDS011;4736;52.508;13.422;2022-08-21T11:11:08;3.20;;;2.90;;
9392;SDS011;4736;52.508;13.422;2022-08-21T11:14:23;3.10;;;2.80;;
9392;SDS011;4736;52.508;13.422;2022-08-21T11:17:32;2.43;;;2.33;;
9392;SDS011;4736;52.508;13.422;2022-08-21T11:20:40;3.23;;;3.03;;
9392;SDS011;4736;52.508;13.422;2022-08-21T11:23:50;3.80;;;2.70;;
9392;SDS011;4736;52.508;13.422;2022-08-21T11:27:01;2.70;;;2.60;;
9392;SDS011;4736;52.508;13.422;2022-08-21T11:30:11;3.87;;;2.60;;
9392;SDS011;4736;52.508;13.422;2022-08-21T11:33:22;3.63;;;2.90;;
9392;SDS011;4736;52.508;13.422;2022-08-21T11:37:00;2.63;;;2.40;;
9392;SDS011;4736;52.508;13.422;2022-08-21T11:40:08;2.60;;;2.40;;
9392;SDS011;4736;52.508;13.422;2022-08-21T11:43:23;2.13;;;1.93;;
9392;SDS011;4736;52.508;13.422;2022-08-21T11:46:39;2.13;;;2.03;;
9392;SDS011;4736;52.508;13.422;2022-08-21T11:49:53;2.03;;;2.03;;
9392;SDS011;4736;52.508;13.422;2022-08-21T11:53:12;2.80;;;2.70;;
9392;SDS011;4736;52.508;13.422;2022-08-21T11:56:17;2.20;;;2.10;;
9392;SDS011;4736;52.508;13.422;2022-08-21T11:59:32;2.43;;;2.30;;
9392;SDS011;4736;52.508;13.422;2022-08-21T12:02:45;2.83;;;2.63;;
9392;SDS011;4736;52.508;13.422;2022-08-21T12:05:52;2.03;;;1.93;;
9392;SDS011;4736;52.508;13.422;2022-08-21T12:08:58;3.50;;;2.27;;
9392;SDS011;4736;52.508;13.422;2022-08-21T12:12:10;2.60;;;2.40;;
9392;SDS011;4736;52.508;13.422;2022-08-21T12:15:26;3.17;;;2.53;;
9392;SDS011;4736;52.508;13.422;2022-08-21T12:18:32;3.83;;;2.10;;
9392;SDS011;4736;52.508;13.422;2022-08-21T12:21:47;2.97;;;2.03;;
9392;SDS011;4736;52.508;13.422;2022-08-21T12:25:02;2.33;;;2.23;;
9392;SDS011;4736;52.508;13.422;2022-08-21T12:28:09;1.63;;;1.63;;
9392;SDS011;4736;52.508;13.422;2022-08-21T12:31:21;2.23;;;2.13;;
9392;SDS011;4736;52.508;13.422;2022-08-21T12:34:29;2.17;;;1.73;;
9392;SDS011;4736;52.508;13.422;2022-08-21T12:37:37;2.10;;;2.00;;
9392;SDS011;4736;52.508;13.422;2022-08-21T12:40:43;1.97;;;1.97;;
9392;SDS011;4736;52.508;13.422;2022-08-21T12:43:51;2.47;;;2.33;;
9392;SDS011;4736;52.508;13.422;2022-08-21T12:47:00;2.13;;;2.03;;
9392;SDS011;4736;52.508;13.422;2022-08-21T12:50:11;2.40;;;2.27;;
9392;SDS011;4736;52.508;13.422;2022-08-21T12:53:24;2.30;;;2.20;;
9392;SDS011;4736;52.508;13.422;2022-08-21T12:56:32;2.20;;;2.07;;
9392;SDS011;4736;52.508;13.422;2022-08-21T12:59:42;1.50;;;1.50;;
9392;SDS011;4736;52.508;13.422;2022-08-21T13:02:46;2.50;;;2.40;;
9392;SDS011;4736;52.508;13.422;2022-08-21T13:05:53;2.60;;;1.70;;
9392;SDS011;4736;52.508;13.422;2022-08-21T13:08:57;2.17;;;1.90;;
9392;SDS011;4736;52.508;13.422;2022-08-21T13:12:08;1.93;;;1.90;;
9392;SDS011;4736;52.508;13.422;2022-08-21T13:15:11;2.00;;;2.00;;
9392;SDS011;4736;52.508;13.422;2022-08-21T13:18:23;2.07;;;2.07;;
9392;SDS011;4736;52.508;13.422;2022-08-21T13:21:31;2.03;;;2.03;;
9392;SDS011;4736;52.508;13.422;2022-08-21T13:24:38;2.40;;;2.40;;
9392;SDS011;4736;52.508;13.422;2022-08-21T13:27:56;1.97;;;1.93;;
9392;SDS011;4736;52.508;13.422;2022-08-21T13:31:01;2.37;;;2.00;;
9392;SDS011;4736;52.508;13.422;2022-08-21T13:34:05;2.47;;;2.27;;
9392;SDS011;4736;52.508;13.422;2022-08-21T13:37:11;1.97;;;1.97;;
9392;SDS011;4736;52.508;13.422;2022-08-21T13:40:15;2.73;;;2.57;;
9392;SDS011;4736;52.508;13.422;2022-08-21T13:43:22;3.60;;;2.73;;
9392;SDS011;4736;52.508;13.422;2022-08-21T13:46:31;4.70;;;2.23;;
9392;SDS011;4736;52.508;13.422;2022-08-21T13:49:37;3.07;;;2.77;;
9392;SDS011;4736;52.508;13.422;2022-08-21T13:52:48;3.30;;;3.03;;
9392;SDS011;4736;52.508;13.422;2022-08-21T13:56:02;3.10;;;2.90;;
9392;SDS011;4736;52.508;13.422;2022-08-21T13:59:06;2.70;;;2.50;;
9392;SDS011;4736;52.508;13.422;2022-08-21T14:02:10;3.40;;;3.10;;
9392;SDS011;4736;52.508;13.422;2022-08-21T14:05:19;2.33;;;2.20;;
9392;SDS011;4736;52.508;13.422;2022-08-21T14:08:29;2.47;;;2.23;;
9392;SDS011;4736;52.508;13.422;2022-08-21T14:11:36;3.40;;;2.97;;
9392;SDS011;4736;52.508;13.422;2022-08-21T14:14:40;3.10;;;2.70;;
9392;SDS011;4736;52.508;13.422;2022-08-21T14:17:44;3.90;;;2.63;;
9392;SDS011;4736;52.508;13.422;2022-08-21T14:20:47;3.23;;;2.93;;
9392;SDS011;4736;52.508;13.422;2022-08-21T14:23:59;3.20;;;3.00;;
9392;SDS011;4736;52.508;13.422;2022-08-21T14:27:17;2.73;;;2.63;;
9392;SDS011;4736;52.508;13.422;2022-08-21T14:30:27;3.23;;;2.83;;
9392;SDS011;4736;52.508;13.422;2022-08-21T14:33:32;2.77;;;2.57;;
9392;SDS011;4736;52.508;13.422;2022-08-21T14:36:37;3.23;;;2.40;;
9392;SDS011;4736;52.508;13.422;2022-08-21T14:39:42;4.40;;;2.40;;
9392;SDS011;4736;52.508;13.422;2022-08-21T14:42:46;3.90;;;2.77;;
9392;SDS011;4736;52.508;13.422;2022-08-21T14:45:50;3.07;;;2.77;;
9392;SDS011;4736;52.508;13.422;2022-08-21T14:48:53;5.37;;;2.90;;
9392;SDS011;4736;52.508;13.422;2022-08-21T14:51:56;4.07;;;3.40;;
9392;SDS011;4736;52.508;13.422;2022-08-21T14:55:01;3.77;;;3.30;;
9392;SDS011;4736;52.508;13.422;2022-08-21T14:58:15;3.17;;;2.80;;
9392;SDS011;4736;52.508;13.422;2022-08-21T15:01:19;5.50;;;3.20;;
9392;SDS011;4736;52.508;13.422;2022-08-21T15:04:24;4.60;;;3.90;;
9392;SDS011;4736;52.508;13.422;2022-08-21T15:07:27;4.77;;;3.50;;
9392;SDS011;4736;52.508;13.422;2022-08-21T15:10:32;3.50;;;3.23;;
9392;SDS011;4736;52.508;13.422;2022-08-21T15:13:53;3.53;;;3.30;;
9392;SDS011;4736;52.508;13.422;2022-08-21T15:17:03;3.87;;;3.57;;
9392;SDS011;4736;52.508;13.422;2022-08-21T15:20:09;4.57;;;3.73;;
9392;SDS011;4736;52.508;13.422;2022-08-21T15:23:12;4.30;;;3.23;;
9392;SDS011;4736;52.508;13.422;2022-08-21T15:26:16;4.20;;;3.47;;
9392;SDS011;4736;52.508;13.422;2022-08-21T15:29:25;3.43;;;3.30;;
9392;SDS011;4736;52.508;13.422;2022-08-21T15:32:33;3.50;;;3.20;;
9392;SDS011;4736;52.508;13.422;2022-08-21T15:35:36;3.63;;;3.23;;
9392;SDS011;4736;52.508;13.422;2022-08-21T15:38:41;3.47;;;3.13;;
9392;SDS011;4736;52.508;13.422;2022-08-21T15:41:46;3.53;;;3.23;;
9392;SDS011;4736;52.508;13.422;2022-08-21T15:44:51;3.90;;;3.40;;
9392;SDS011;4736;52.508;13.422;2022-08-21T15:47:55;3.07;;;2.97;;
9392;SDS011;4736;52.508;13.422;2022-08-21T15:50:58;3.87;;;3.20;;
9392;SDS011;4736;52.508;13.422;2022-08-21T15:54:01;3.20;;;3.00;;
9392;SDS011;4736;52.508;13.422;2022-08-21T15:57:06;4.13;;;3.43;;
9392;SDS011;4736;52.508;13.422;2022-08-21T16:00:13;3.60;;;3.10;;
9392;SDS011;4736;52.508;13.422;2022-08-21T16:03:19;3.53;;;3.00;;
9392;SDS011;4736;52.508;13.422;2022-08-21T16:06:32;3.63;;;3.33;;
9392;SDS011;4736;52.508;13.422;2022-08-21T16:09:38;3.00;;;2.90;;
9392;SDS011;4736;52.508;13.422;2022-08-21T16:12:43;3.30;;;3.10;;
9392;SDS011;4736;52.508;13.422;2022-08-21T16:15:50;3.77;;;3.47;;
9392;SDS011;4736;52.508;13.422;2022-08-21T16:18:53;3.50;;;3.00;;
9392;SDS011;4736;52.508;13.422;2022-08-21T16:21:56;4.10;;;3.30;;
9392;SDS011;4736;52.508;13.422;2022-08-21T16:24:59;3.43;;;3.20;;
9392;SDS011;4736;52.508;13.422;2022-08-21T16:28:06;3.47;;;3.30;;
9392;SDS011;4736;52.508;13.422;2022-08-21T16:31:13;3.23;;;2.97;;
9392;SDS011;4736;52.508;13.422;2022-08-21T16:34:17;5.47;;;3.13;;
9392;SDS011;4736;52.508;13.422;2022-08-21T16:37:22;4.53;;;2.77;;
9392;SDS011;4736;52.508;13.422;2022-08-21T16:40:27;2.80;;;2.60;;
9392;SDS011;4736;52.508;13.422;2022-08-21T16:43:32;2.67;;;2.57;;
9392;SDS011;4736;52.508;13.422;2022-08-21T16:46:37;2.93;;;2.73;;
9392;SDS011;4736;52.508;13.422;2022-08-21T16:49:42;3.47;;;3.27;;
9392;SDS011;4736;52.508;13.422;2022-08-21T16:52:47;5.37;;;3.00;;
9392;SDS011;4736;52.508;13.422;2022-08-21T16:55:51;4.00;;;2.80;;
9392;SDS011;4736;52.508;13.422;2022-08-21T16:58:56;3.07;;;2.80;;
9392;SDS011;4736;52.508;13.422;2022-08-21T17:02:00;3.10;;;2.90;;
9392;SDS011;4736;52.508;13.422;2022-08-21T17:05:04;2.90;;;2.80;;
9392;SDS011;4736;52.508;13.422;2022-08-21T17:08:17;3.53;;;3.20;;
9392;SDS011;4736;52.508;13.422;2022-08-21T17:11:21;3.40;;;3.10;;
9392;SDS011;4736;52.508;13.422;2022-08-21T17:14:39;3.63;;;3.50;;
9392;SDS011;4736;52.508;13.422;2022-08-21T17:17:43;2.60;;;2.50;;
9392;SDS011;4736;52.508;13.422;2022-08-21T17:20:47;2.77;;;2.67;;
9392;SDS011;4736;52.508;13.422;2022-08-21T17:23:50;3.17;;;2.97;;
9392;SDS011;4736;52.508;13.422;2022-08-21T17:26:53;3.83;;;2.90;;
9392;SDS011;4736;52.508;13.422;2022-08-21T17:29:59;2.67;;;2.57;;
9392;SDS011;4736;52.508;13.422;2022-08-21T17:33:02;3.70;;;2.67;;
9392;SDS011;4736;52.508;13.422;2022-08-21T17:36:05;3.00;;;2.90;;
9392;SDS011;4736;52.508;13.422;2022-08-21T17:39:08;3.27;;;3.07;;
9392;SDS011;4736;52.508;13.422;2022-08-21T17:42:16;2.93;;;2.83;;
9392;SDS011;4736;52.508;13.422;2022-08-21T17:45:21;2.87;;;2.57;;
9392;SDS011;4736;52.508;13.422;2022-08-21T17:48:24;2.67;;;2.57;;
9392;SDS011;4736;52.508;13.422;2022-08-21T17:51:27;2.97;;;2.83;;
9392;SDS011;4736;52.508;13.422;2022-08-21T17:54:29;2.87;;;2.77;;
9392;SDS011;4736;52.508;13.422;2022-08-21T17:57:33;2.70;;;2.53;;
9392;SDS011;4736;52.508;13.422;2022-08-21T18:00:38;2.70;;;2.70;;
9392;SDS011;4736;52.508;13.422;2022-08-21T18:03:42;2.70;;;2.60;;
9392;SDS011;4736;52.508;13.422;2022-08-21T18:06:48;4.37;;;2.90;;
9392;SDS011;4736;52.508;13.422;2022-08-21T18:09:51;2.80;;;2.60;;
9392;SDS011;4736;52.508;13.422;2022-08-21T18:12:57;2.80;;;2.60;;
9392;SDS011;4736;52.508;13.422;2022-08-21T18:16:04;3.00;;;2.90;;
9392;SDS011;4736;52.508;13.422;2022-08-21T18:19:09;2.60;;;2.50;;
9392;SDS011;4736;52.508;13.422;2022-08-21T18:22:16;3.33;;;3.13;;
9392;SDS011;4736;52.508;13.422;2022-08-21T18:25:19;3.03;;;2.93;;
9392;SDS011;4736;52.508;13.422;2022-08-21T18:28:22;3.57;;;3.37;;
9392;SDS011;4736;52.508;13.422;2022-08-21T18:31:27;2.80;;;2.70;;
9392;SDS011;4736;52.508;13.422;2022-08-21T18:34:39;3.83;;;3.67;;
9392;SDS011;4736;52.508;13.422;2022-08-21T18:37:44;3.40;;;3.20;;
9392;SDS011;4736;52.508;13.422;2022-08-21T18:40:49;3.40;;;3.20;;
9392;SDS011;4736;52.508;13.422;2022-08-21T18:43:56;3.37;;;3.10;;
9392;SDS011;4736;52.508;13.422;2022-08-21T18:47:02;3.73;;;3.53;;
9392;SDS011;4736;52.508;13.422;2022-08-21T18:50:07;3.00;;;2.90;;
9392;SDS011;4736;52.508;13.422;2022-08-21T18:53:12;3.10;;;3.00;;
9392;SDS011;4736;52.508;13.422;2022-08-21T18:56:37;3.63;;;3.43;;
9392;SDS011;4736;52.508;13.422;2022-08-21T18:59:41;3.10;;;3.00;;
9392;SDS011;4736;52.508;13.422;2022-08-21T19:02:45;3.87;;;3.60;;
9392;SDS011;4736;52.508;13.422;2022-08-21T19:05:49;3.87;;;3.67;;
9392;SDS011;4736;52.508;13.422;2022-08-21T19:08:52;4.10;;;3.80;;
9392;SDS011;4736;52.508;13.422;2022-08-21T19:11:56;4.87;;;4.47;;
9392;SDS011;4736;52.508;13.422;2022-08-21T19:14:59;3.93;;;3.63;;